createdAt,value
2022-08-23T00:00:20.766Z,4.10
2022-08-23T00:01:21.145Z,4.10
2022-08-23T00:02:23.619Z,4.30
2022-08-23T00:03:20.816Z,4.20
2022-08-23T00:04:20.742Z,3.90
2022-08-23T00:05:20.712Z,4.20
2022-08-23T00:06:20.701Z,4.00
2022-08-23T00:07:20.717Z,4.40
2022-08-23T00:08:20.682Z,4.20
2022-08-23T00:09:20.711Z,4.30
2022-08-23T00:10:20.656Z,4.40
2022-08-23T00:11:20.640Z,4.40
2022-08-23T00:12:20.668Z,4.20
2022-08-23T00:13:20.629Z,4.30
2022-08-23T00:14:20.642Z,4.30
2022-08-23T00:15:20.604Z,4.10
2022-08-23T00:16:20.603Z,4.40
2022-08-23T00:17:33.365Z,4.50
2022-08-23T00:18:20.579Z,4.50
2022-08-23T00:19:20.579Z,4.10
2022-08-23T00:20:20.567Z,4.30
2022-08-23T00:21:20.552Z,4.20
2022-08-23T00:22:20.531Z,4.60
2022-08-23T00:23:20.508Z,4.20
2022-08-23T00:24:20.552Z,4.60
2022-08-23T00:25:20.496Z,4.10
2022-08-23T00:26:20.518Z,4.40
2022-08-23T00:27:20.474Z,4.80
2022-08-23T00:28:20.489Z,4.20
2022-08-23T00:29:20.491Z,4.80
2022-08-23T00:30:20.449Z,4.30
2022-08-23T00:31:20.429Z,4.40
2022-08-23T00:32:20.433Z,4.60
2022-08-23T00:33:20.411Z,4.60
2022-08-23T00:34:20.417Z,4.30
2022-08-23T00:35:26.518Z,4.60
2022-08-23T00:36:20.383Z,4.40
2022-08-23T00:37:20.364Z,4.50
2022-08-23T00:38:32.611Z,5.20
2022-08-23T00:39:20.385Z,4.70
2022-08-23T00:40:20.421Z,4.50
2022-08-23T00:41:20.317Z,4.70
2022-08-23T00:42:20.314Z,4.40
2022-08-23T00:43:20.315Z,4.90
2022-08-23T00:44:20.319Z,4.90
2022-08-23T00:45:20.304Z,5.20
2022-08-23T00:46:20.271Z,4.50
2022-08-23T00:47:20.293Z,4.70
2022-08-23T00:48:20.249Z,5.20
2022-08-23T00:49:20.267Z,5.00
2022-08-23T00:50:24.228Z,5.10
2022-08-23T00:51:20.211Z,4.70
2022-08-23T00:52:20.238Z,4.90
2022-08-23T00:53:20.192Z,4.80
2022-08-23T00:54:20.208Z,5.10
2022-08-23T00:55:20.170Z,4.80
2022-08-23T00:56:20.156Z,5.10
2022-08-23T00:57:20.149Z,5.20
2022-08-23T00:58:20.174Z,5.60
2022-08-23T00:59:20.170Z,5.30
2022-08-23T01:00:20.145Z,5.50
2022-08-23T01:01:20.146Z,5.30
2022-08-23T01:02:20.105Z,5.70
2022-08-23T01:03:20.615Z,5.40
2022-08-23T01:04:20.107Z,5.40
2022-08-23T01:05:20.059Z,5.20
2022-08-23T01:06:20.073Z,5.60
2022-08-23T01:07:20.045Z,5.00
2022-08-23T01:08:20.043Z,5.80
2022-08-23T01:09:20.057Z,5.10
2022-08-23T01:10:21.072Z,5.40
2022-08-23T01:11:20.008Z,5.50
2022-08-23T01:12:32.722Z,5.80
2022-08-23T01:13:19.969Z,5.50
2022-08-23T01:14:19.999Z,5.50
2022-08-23T01:15:19.955Z,5.70
2022-08-23T01:16:19.935Z,6.30
2022-08-23T01:17:19.943Z,6.10
2022-08-23T01:18:19.911Z,5.60
2022-08-23T01:19:19.936Z,5.50
2022-08-23T01:20:19.894Z,5.50
2022-08-23T01:21:19.883Z,5.20
2022-08-23T01:22:19.869Z,5.40
2022-08-23T01:23:19.876Z,5.30
2022-08-23T01:24:59.819Z,5.70
2022-08-23T01:25:19.879Z,5.70
2022-08-23T01:26:21.839Z,5.00
2022-08-23T01:27:19.859Z,5.30
2022-08-23T01:28:19.795Z,5.90
2022-08-23T01:29:19.835Z,5.60
2022-08-23T01:30:19.795Z,5.70
2022-08-23T01:31:19.805Z,5.40
2022-08-23T01:32:19.765Z,5.60
2022-08-23T01:33:19.804Z,6.00
2022-08-23T01:34:19.755Z,5.30
2022-08-23T01:36:19.719Z,5.60
2022-08-23T01:37:19.708Z,5.20
2022-08-23T01:38:19.713Z,5.80
2022-08-23T01:39:19.711Z,5.50
2022-08-23T01:40:19.734Z,5.20
2022-08-23T01:41:19.680Z,5.30
2022-08-23T01:42:19.648Z,5.70
2022-08-23T01:43:19.649Z,5.70
2022-08-23T01:44:19.650Z,6.00
2022-08-23T01:45:19.621Z,6.00
2022-08-23T01:46:19.627Z,5.10
2022-08-23T01:47:19.627Z,5.60
2022-08-23T01:48:19.578Z,5.40
2022-08-23T01:49:19.592Z,5.30
2022-08-23T01:50:19.566Z,5.20
2022-08-23T01:51:19.571Z,5.80
2022-08-23T01:52:19.569Z,5.40
2022-08-23T01:53:19.549Z,5.70
2022-08-23T01:54:19.552Z,5.80
2022-08-23T01:55:19.517Z,6.30
2022-08-23T01:56:19.494Z,5.80
2022-08-23T01:57:19.508Z,6.10
2022-08-23T01:58:19.477Z,5.90
2022-08-23T01:59:19.504Z,6.20
2022-08-23T02:00:19.450Z,5.60
2022-08-23T02:01:19.498Z,5.80
2022-08-23T02:02:19.436Z,5.60
2022-08-23T02:03:19.428Z,5.60
2022-08-23T02:04:19.427Z,5.80
2022-08-23T02:05:19.429Z,6.10
2022-08-23T02:06:19.377Z,5.70
2022-08-23T02:07:19.404Z,5.30
2022-08-23T02:08:19.358Z,5.40
2022-08-23T02:09:19.394Z,5.40
2022-08-23T02:10:19.353Z,5.60
2022-08-23T02:11:19.349Z,5.20
2022-08-23T02:12:19.321Z,5.20
2022-08-23T02:13:19.342Z,5.50
2022-08-23T02:14:19.313Z,5.10
2022-08-23T02:15:19.283Z,5.60
2022-08-23T02:16:19.289Z,5.30
2022-08-23T02:17:19.253Z,5.50
2022-08-23T02:18:19.247Z,5.50
2022-08-23T02:19:19.267Z,5.90
2022-08-23T02:20:19.234Z,6.00
2022-08-23T02:21:19.240Z,6.20
2022-08-23T02:22:19.224Z,5.60
2022-08-23T02:23:19.188Z,6.00
2022-08-23T02:24:19.211Z,5.90
2022-08-23T02:25:19.181Z,5.60
2022-08-23T02:26:19.190Z,6.10
2022-08-23T02:27:19.170Z,6.00
2022-08-23T02:28:19.140Z,5.60
2022-08-23T02:29:19.193Z,6.00
2022-08-23T02:30:19.120Z,6.10
2022-08-23T02:31:19.105Z,6.00
2022-08-23T02:32:19.097Z,6.00
2022-08-23T02:33:19.088Z,6.20
2022-08-23T02:34:19.115Z,6.40
2022-08-23T02:35:19.053Z,6.10
2022-08-23T02:37:19.034Z,6.60
2022-08-23T02:38:19.033Z,6.10
2022-08-23T02:39:19.093Z,6.20
2022-08-23T02:40:19.087Z,5.90
2022-08-23T02:41:19.008Z,5.20
2022-08-23T02:42:18.979Z,6.00
2022-08-23T02:43:18.967Z,5.70
2022-08-23T02:44:19.002Z,6.10
2022-08-23T02:45:18.981Z,5.70
2022-08-23T02:46:18.937Z,6.30
2022-08-23T02:47:18.921Z,6.20
2022-08-23T02:48:18.904Z,6.60
2022-08-23T02:49:18.946Z,6.30
2022-08-23T02:50:18.888Z,6.30
2022-08-23T02:51:18.878Z,6.20
2022-08-23T02:52:18.868Z,6.00
2022-08-23T02:53:18.876Z,5.40
2022-08-23T02:54:18.862Z,5.60
2022-08-23T02:55:18.843Z,6.10
2022-08-23T02:56:21.457Z,5.90
2022-08-23T02:57:18.834Z,6.00
2022-08-23T02:58:18.794Z,5.50
2022-08-23T02:59:18.848Z,6.00
2022-08-23T03:00:18.766Z,5.60
2022-08-23T03:01:18.778Z,6.00
2022-08-23T03:02:18.811Z,6.30
2022-08-23T03:03:18.757Z,5.90
2022-08-23T03:04:18.771Z,6.10
2022-08-23T03:05:18.727Z,5.90
2022-08-23T03:06:25.535Z,6.30
2022-08-23T03:07:18.698Z,6.10
2022-08-23T03:08:18.678Z,6.50
2022-08-23T03:09:18.704Z,6.60
2022-08-23T03:10:18.681Z,6.00
2022-08-23T03:11:18.662Z,6.80
2022-08-23T03:12:18.639Z,5.90
2022-08-23T03:13:18.636Z,6.40
2022-08-23T03:14:18.665Z,6.50
2022-08-23T03:15:18.639Z,6.00
2022-08-23T03:16:18.599Z,6.00
2022-08-23T03:17:18.603Z,6.20
2022-08-23T03:18:18.606Z,6.60
2022-08-23T03:19:18.583Z,6.10
2022-08-23T03:20:18.554Z,5.90
2022-08-23T03:21:18.542Z,6.10
2022-08-23T03:22:18.566Z,5.90
2022-08-23T03:23:18.519Z,6.00
2022-08-23T03:24:18.540Z,6.30
2022-08-23T03:25:18.511Z,6.10
2022-08-23T03:26:18.491Z,6.20
2022-08-23T03:27:18.480Z,6.20
2022-08-23T03:28:18.490Z,6.30
2022-08-23T03:29:18.491Z,6.10
2022-08-23T03:30:19.928Z,6.10
2022-08-23T03:31:18.431Z,6.80
2022-08-23T03:32:18.453Z,6.10
2022-08-23T03:33:18.405Z,6.20
2022-08-23T03:34:18.423Z,6.80
2022-08-23T03:35:18.381Z,6.70
2022-08-23T03:36:18.396Z,6.30
2022-08-23T03:37:18.392Z,6.50
2022-08-23T03:38:18.353Z,6.30
2022-08-23T03:39:18.395Z,6.60
2022-08-23T03:40:18.435Z,6.20
2022-08-23T03:41:18.321Z,5.80
2022-08-23T03:42:18.308Z,6.50
2022-08-23T03:43:18.318Z,6.20
2022-08-23T03:44:18.330Z,6.30
2022-08-23T03:45:18.297Z,5.80
2022-08-23T03:46:18.277Z,6.10
2022-08-23T03:47:18.269Z,6.40
2022-08-23T03:48:18.269Z,6.10
2022-08-23T03:49:18.267Z,6.10
2022-08-23T03:50:18.239Z,6.20
2022-08-23T03:51:18.214Z,6.70
2022-08-23T03:52:18.204Z,6.40
2022-08-23T03:53:18.199Z,6.50
2022-08-23T03:54:18.208Z,6.30
2022-08-23T03:55:18.183Z,6.50
2022-08-23T03:56:18.180Z,6.70
2022-08-23T03:57:18.141Z,6.70
2022-08-23T03:58:18.157Z,6.50
2022-08-23T03:59:18.147Z,6.10
2022-08-23T04:00:20.180Z,6.40
2022-08-23T04:01:18.121Z,6.40
2022-08-23T04:02:18.212Z,6.10
2022-08-23T04:03:18.077Z,6.50
2022-08-23T04:04:18.101Z,6.50
2022-08-23T04:05:18.068Z,6.80
2022-08-23T04:06:18.055Z,6.70
2022-08-23T04:07:18.054Z,7.00
2022-08-23T04:08:33.387Z,7.00
2022-08-23T04:09:18.039Z,6.90
2022-08-23T04:10:17.995Z,6.50
2022-08-23T04:11:17.992Z,6.50
2022-08-23T04:12:18.027Z,6.20
2022-08-23T04:13:17.990Z,6.00
2022-08-23T04:14:17.986Z,6.40
2022-08-23T04:15:17.965Z,6.20
2022-08-23T04:16:17.941Z,6.30
2022-08-23T04:17:17.942Z,6.40
2022-08-23T04:18:17.922Z,6.90
2022-08-23T04:19:17.948Z,6.20
2022-08-23T04:20:17.922Z,6.00
2022-08-23T04:21:17.887Z,7.30
2022-08-23T04:22:17.894Z,6.70
2022-08-23T04:23:17.860Z,6.60
2022-08-23T04:24:17.899Z,5.80
2022-08-23T04:25:34.264Z,6.10
2022-08-23T04:26:17.850Z,6.70
2022-08-23T04:27:17.857Z,6.70
2022-08-23T04:28:17.809Z,6.90
2022-08-23T04:29:24.903Z,6.60
2022-08-23T04:30:17.783Z,6.70
2022-08-23T04:31:17.795Z,7.20
2022-08-23T04:32:28.333Z,6.90
2022-08-23T04:33:18.283Z,6.50
2022-08-23T04:34:17.790Z,6.90
2022-08-23T04:35:17.743Z,6.50
2022-08-23T04:36:17.718Z,6.70
2022-08-23T04:37:17.714Z,6.20
2022-08-23T04:38:24.257Z,6.40
2022-08-23T04:39:17.765Z,7.10
2022-08-23T04:40:17.726Z,6.60
2022-08-23T04:41:17.673Z,6.30
2022-08-23T04:42:17.669Z,6.50
2022-08-23T04:43:17.631Z,6.00
2022-08-23T04:44:17.669Z,6.90
2022-08-23T04:45:17.625Z,6.70
2022-08-23T04:46:17.600Z,6.30
2022-08-23T04:47:17.643Z,6.70
2022-08-23T04:48:17.601Z,6.40
2022-08-23T04:49:17.614Z,6.40
2022-08-23T04:50:17.561Z,6.40
2022-08-23T04:51:17.575Z,6.60
2022-08-23T04:52:19.626Z,6.30
2022-08-23T04:53:17.553Z,6.50
2022-08-23T04:54:19.000Z,7.10
2022-08-23T04:55:17.506Z,6.90
2022-08-23T04:56:17.499Z,6.30
2022-08-23T04:57:17.492Z,7.60
2022-08-23T04:58:17.478Z,7.10
2022-08-23T04:59:17.494Z,6.80
2022-08-23T05:00:17.449Z,7.30
2022-08-23T05:01:17.474Z,6.90
2022-08-23T05:02:17.434Z,6.60
2022-08-23T05:03:17.425Z,7.50
2022-08-23T05:04:17.431Z,6.80
2022-08-23T05:05:17.396Z,7.30
2022-08-23T05:06:17.383Z,7.00
2022-08-23T05:07:17.399Z,6.50
2022-08-23T05:08:17.369Z,7.30
2022-08-23T05:09:20.703Z,6.70
2022-08-23T05:10:17.362Z,6.80
2022-08-23T05:11:17.344Z,6.20
2022-08-23T05:12:17.327Z,7.30
2022-08-23T05:13:17.322Z,7.10
2022-08-23T05:14:17.360Z,6.80
2022-08-23T05:15:17.282Z,7.00
2022-08-23T05:16:17.276Z,7.30
2022-08-23T05:17:17.312Z,7.00
2022-08-23T05:18:17.260Z,6.30
2022-08-23T05:19:17.282Z,6.90
2022-08-23T05:20:17.239Z,6.60
2022-08-23T05:21:17.215Z,7.00
2022-08-23T05:22:17.234Z,6.80
2022-08-23T05:23:17.199Z,7.10
2022-08-23T05:24:17.206Z,7.40
2022-08-23T05:25:17.179Z,7.70
2022-08-23T05:26:17.179Z,7.10
2022-08-23T05:27:17.147Z,7.10
2022-08-23T05:28:17.146Z,6.20
2022-08-23T05:29:17.172Z,7.00
2022-08-23T05:30:17.128Z,6.40
2022-08-23T05:31:17.135Z,6.80
2022-08-23T05:32:17.095Z,7.10
2022-08-23T05:33:17.086Z,7.00
2022-08-23T05:34:17.100Z,7.50
2022-08-23T05:35:17.098Z,6.50
2022-08-23T05:36:17.080Z,7.10
2022-08-23T05:37:17.041Z,6.30
2022-08-23T05:38:20.631Z,6.60
2022-08-23T05:39:21.160Z,6.40
2022-08-23T05:40:17.093Z,6.90
2022-08-23T05:41:17.004Z,6.60
2022-08-23T05:42:17.021Z,6.90
2022-08-23T05:43:16.973Z,7.30
2022-08-23T05:44:17.038Z,7.20
2022-08-23T05:45:21.077Z,6.80
2022-08-23T05:46:19.778Z,6.80
2022-08-23T05:47:16.926Z,7.60
2022-08-23T05:48:18.377Z,7.40
2022-08-23T05:49:21.204Z,5.80
2022-08-23T05:50:16.916Z,6.90
2022-08-23T05:51:16.898Z,6.90
2022-08-23T05:52:16.887Z,6.30
2022-08-23T05:53:16.872Z,6.00
2022-08-23T05:54:16.959Z,5.90
2022-08-23T05:55:16.838Z,5.80
2022-08-23T05:56:16.832Z,7.60
2022-08-23T05:57:16.822Z,5.60
2022-08-23T05:58:16.801Z,6.50
2022-08-23T05:59:16.857Z,6.30
2022-08-23T06:00:16.807Z,5.90
2022-08-23T06:01:16.820Z,6.20
2022-08-23T06:02:16.773Z,5.80
2022-08-23T06:03:16.753Z,5.60
2022-08-23T06:04:16.782Z,6.00
2022-08-23T06:05:16.748Z,6.00
2022-08-23T06:06:16.757Z,5.70
2022-08-23T06:07:16.709Z,5.80
2022-08-23T06:08:16.705Z,5.30
2022-08-23T06:09:16.723Z,5.30
2022-08-23T06:10:16.698Z,6.10
2022-08-23T06:11:16.681Z,5.60
2022-08-23T06:12:16.680Z,6.00
2022-08-23T06:13:16.637Z,5.20
2022-08-23T06:14:16.704Z,5.30
2022-08-23T06:15:16.611Z,5.20
2022-08-23T06:16:16.603Z,5.40
2022-08-23T06:17:16.593Z,5.50
2022-08-23T06:18:16.584Z,4.90
2022-08-23T06:19:16.597Z,5.00
2022-08-23T06:20:16.603Z,5.30
2022-08-23T06:21:16.576Z,4.50
2022-08-23T06:22:16.546Z,4.60
2022-08-23T06:23:16.535Z,4.90
2022-08-23T06:24:16.553Z,5.20
2022-08-23T06:25:16.529Z,4.60
2022-08-23T06:26:16.514Z,4.70
2022-08-23T06:27:16.541Z,4.50
2022-08-23T06:28:16.486Z,4.60
2022-08-23T06:29:16.599Z,4.30
2022-08-23T06:30:16.464Z,4.50
2022-08-23T06:31:16.639Z,4.80
2022-08-23T06:32:16.558Z,4.90
2022-08-23T06:33:16.424Z,4.80
2022-08-23T06:34:16.467Z,4.40
2022-08-23T06:35:39.178Z,4.20
2022-08-23T06:36:16.393Z,4.50
2022-08-23T06:37:16.413Z,4.80
2022-08-23T06:38:16.392Z,4.70
2022-08-23T06:39:16.390Z,4.60
2022-08-23T06:40:17.889Z,4.50
2022-08-23T06:41:16.383Z,4.40
2022-08-23T06:42:50.223Z,4.50
2022-08-23T06:43:16.335Z,4.50
2022-08-23T06:44:16.331Z,4.60
2022-08-23T06:45:16.309Z,4.50
2022-08-23T06:46:16.634Z,4.40
2022-08-23T06:47:16.301Z,4.00
2022-08-23T06:48:18.816Z,4.30
2022-08-23T06:49:16.310Z,4.00
2022-08-23T06:50:16.252Z,3.90
2022-08-23T06:51:16.248Z,4.20
2022-08-23T06:52:16.219Z,4.50
2022-08-23T06:53:16.210Z,4.40
2022-08-23T06:54:16.264Z,4.10
2022-08-23T06:55:16.199Z,4.10
2022-08-23T06:56:16.243Z,3.80
2022-08-23T06:57:16.165Z,4.40
2022-08-23T06:58:16.150Z,4.20
2022-08-23T06:59:16.251Z,4.10
2022-08-23T07:00:21.513Z,3.70
2022-08-23T07:01:42.275Z,3.80
2022-08-23T07:02:16.303Z,4.00
2022-08-23T07:03:16.125Z,4.00
2022-08-23T07:04:16.167Z,3.80
2022-08-23T07:05:16.079Z,4.10
2022-08-23T07:06:16.082Z,3.80
2022-08-23T07:07:16.253Z,3.70
2022-08-23T07:08:16.117Z,4.00
2022-08-23T07:09:16.361Z,3.80
2022-08-23T07:10:16.121Z,4.00
2022-08-23T07:11:16.024Z,3.90
2022-08-23T07:12:16.148Z,3.90
2022-08-23T07:13:18.596Z,3.70
2022-08-23T07:14:16.044Z,3.90
2022-08-23T07:15:16.049Z,3.70
2022-08-23T07:16:16.178Z,3.70
2022-08-23T07:17:16.101Z,4.00
2022-08-23T07:18:15.967Z,3.90
2022-08-23T07:19:16.235Z,4.00
2022-08-23T07:20:16.794Z,3.60
2022-08-23T07:21:30.576Z,3.60
2022-08-23T07:22:16.041Z,3.70
2022-08-23T07:25:52.866Z,3.90
2022-08-23T07:26:54.701Z,4.00
2022-08-23T07:27:54.632Z,3.80
2022-08-23T07:28:53.301Z,3.60
2022-08-23T07:29:53.320Z,3.80
2022-08-23T07:30:53.264Z,3.50
2022-08-23T07:31:53.314Z,3.40
2022-08-23T07:32:53.258Z,3.50
2022-08-23T07:33:53.244Z,3.60
2022-08-23T07:34:53.242Z,3.70
2022-08-23T07:35:53.216Z,3.40
2022-08-23T07:36:53.209Z,3.40
2022-08-23T07:37:53.191Z,3.60
2022-08-23T07:38:53.206Z,3.80
2022-08-23T07:39:53.280Z,3.50
2022-08-23T07:40:54.038Z,3.60
2022-08-23T07:41:53.144Z,3.40
2022-08-23T07:42:53.762Z,3.80
2022-08-23T07:43:53.129Z,3.40
2022-08-23T07:44:53.601Z,3.50
2022-08-23T07:45:53.129Z,3.80
2022-08-23T07:46:53.131Z,3.60
2022-08-23T07:47:53.088Z,3.30
2022-08-23T07:48:54.669Z,3.50
2022-08-23T07:49:53.083Z,3.30
2022-08-23T07:50:54.662Z,3.10
2022-08-23T07:51:53.063Z,3.40
2022-08-23T07:52:53.024Z,3.20
2022-08-23T07:53:53.012Z,3.40
2022-08-23T07:54:53.085Z,3.40
2022-08-23T07:55:53.003Z,3.30
2022-08-23T07:56:52.976Z,3.20
2022-08-23T07:57:52.998Z,3.20
2022-08-23T07:58:52.955Z,3.40
2022-08-23T07:59:52.977Z,3.30
2022-08-23T08:00:52.941Z,3.40
2022-08-23T08:01:52.985Z,3.00
2022-08-23T08:02:52.958Z,3.70
2022-08-23T08:03:52.936Z,3.40
2022-08-23T08:04:52.908Z,3.50
2022-08-23T08:05:52.887Z,3.40
2022-08-23T08:07:16.877Z,3.40
2022-08-23T08:07:52.885Z,3.60
2022-08-23T08:08:52.870Z,3.00
2022-08-23T08:09:52.875Z,3.30
2022-08-23T08:10:52.824Z,3.20
2022-08-23T08:11:52.818Z,3.50
2022-08-23T08:12:52.835Z,3.20
2022-08-23T08:13:52.797Z,3.00
2022-08-23T08:14:52.807Z,3.20
2022-08-23T08:15:52.924Z,3.50
2022-08-23T08:16:52.857Z,3.50
2022-08-23T08:17:52.800Z,3.20
2022-08-23T08:18:52.781Z,3.40
2022-08-23T08:19:52.810Z,3.50
2022-08-23T08:20:52.802Z,3.40
2022-08-23T08:21:52.757Z,3.30
2022-08-23T08:22:58.836Z,3.60
2022-08-23T08:23:52.685Z,3.40
2022-08-23T08:24:52.678Z,3.30
2022-08-23T08:25:52.688Z,3.10
2022-08-23T08:26:52.732Z,3.40
2022-08-23T08:27:52.674Z,3.30
2022-08-23T08:28:52.682Z,3.30
2022-08-23T08:29:52.646Z,3.20
2022-08-23T08:30:52.695Z,3.60
2022-08-23T08:31:54.499Z,3.20
2022-08-23T08:32:52.656Z,3.20
2022-08-23T08:33:53.980Z,3.50
2022-08-23T08:34:52.582Z,3.30
2022-08-23T08:35:57.802Z,3.20
2022-08-23T08:36:52.549Z,3.40
2022-08-23T08:37:52.526Z,3.30
2022-08-23T08:38:56.728Z,3.40
2022-08-23T08:39:52.583Z,3.30
2022-08-23T08:40:52.494Z,3.30
2022-08-23T08:42:03.908Z,3.30
2022-08-23T08:42:52.493Z,3.10
2022-08-23T08:43:52.457Z,3.30
2022-08-23T08:44:52.475Z,3.40
2022-08-23T08:45:58.826Z,3.50
2022-08-23T08:46:52.569Z,3.10
2022-08-23T08:47:52.437Z,3.30
2022-08-23T08:48:52.415Z,3.40
2022-08-23T08:49:52.435Z,3.40
2022-08-23T08:50:52.403Z,3.30
2022-08-23T08:51:52.382Z,3.40
2022-08-23T08:52:52.454Z,3.40
2022-08-23T08:53:52.367Z,3.50
2022-08-23T08:54:53.287Z,3.50
2022-08-23T08:55:52.982Z,3.40
2022-08-23T08:56:52.335Z,3.50
2022-08-23T08:57:52.350Z,3.40
2022-08-23T08:58:52.307Z,3.30
2022-08-23T08:59:52.347Z,3.10
2022-08-23T09:00:56.559Z,3.20
2022-08-23T09:01:52.340Z,3.50
2022-08-23T09:02:52.343Z,3.40
2022-08-23T09:03:52.459Z,3.60
2022-08-23T09:04:52.273Z,3.60
2022-08-23T09:05:52.274Z,3.80
2022-08-23T09:06:52.217Z,3.60
2022-08-23T09:07:52.217Z,3.80
2022-08-23T09:08:52.195Z,3.40
2022-08-23T09:09:52.237Z,3.90
2022-08-23T09:10:52.181Z,3.90
2022-08-23T09:11:52.174Z,3.90
2022-08-23T09:12:52.155Z,3.20
2022-08-23T09:13:52.167Z,3.30
2022-08-23T09:14:52.169Z,3.60
2022-08-23T09:15:52.201Z,3.50
2022-08-23T09:16:52.118Z,3.50
2022-08-23T09:17:52.147Z,3.30
2022-08-23T09:18:52.117Z,3.60
2022-08-23T09:19:52.135Z,3.80
2022-08-23T09:20:52.074Z,3.80
2022-08-23T09:21:52.060Z,3.70
2022-08-23T09:22:52.147Z,3.50
2022-08-23T09:24:00.621Z,3.50
2022-08-23T09:24:52.075Z,3.40
2022-08-23T09:25:52.026Z,3.80
2022-08-23T09:26:52.029Z,3.50
2022-08-23T09:27:52.011Z,3.40
2022-08-23T09:28:51.998Z,3.60
2022-08-23T09:29:52.026Z,3.60
2022-08-23T09:30:52.866Z,3.60
2022-08-23T09:31:52.018Z,3.50
2022-08-23T09:32:51.993Z,3.30
2022-08-23T09:33:51.944Z,3.70
2022-08-23T09:34:52.030Z,3.70
2022-08-23T09:35:51.938Z,3.40
2022-08-23T09:36:52.420Z,3.50
2022-08-23T09:37:51.889Z,3.10
2022-08-23T09:38:51.917Z,3.50
2022-08-23T09:39:51.920Z,3.60
2022-08-23T09:40:51.876Z,3.50
2022-08-23T09:41:51.857Z,3.50
2022-08-23T09:42:51.853Z,3.70
2022-08-23T09:43:51.823Z,3.40
2022-08-23T09:44:51.831Z,3.30
2022-08-23T09:45:51.827Z,3.30
2022-08-23T09:46:51.797Z,3.30
2022-08-23T09:47:53.230Z,3.80
2022-08-23T09:48:51.778Z,3.80
2022-08-23T09:49:51.782Z,3.70
2022-08-23T09:50:51.786Z,3.90
2022-08-23T09:51:53.163Z,3.30
2022-08-23T09:52:51.751Z,3.40
2022-08-23T09:53:51.716Z,3.30
2022-08-23T09:54:51.737Z,3.10
2022-08-23T09:55:51.692Z,3.40
2022-08-23T09:56:51.688Z,3.70
2022-08-23T09:57:51.754Z,3.50
2022-08-23T09:58:51.670Z,4.00
2022-08-23T09:59:51.934Z,3.50
2022-08-23T10:00:51.748Z,3.50
2022-08-23T10:01:51.718Z,3.30
2022-08-23T10:02:51.698Z,3.60
2022-08-23T10:03:51.618Z,3.70
2022-08-23T10:04:51.687Z,3.40
2022-08-23T10:05:51.612Z,3.60
2022-08-23T10:06:51.579Z,3.70
2022-08-23T10:07:51.568Z,3.80
2022-08-23T10:08:51.542Z,3.60
2022-08-23T10:09:51.557Z,3.70
2022-08-23T10:10:51.545Z,3.60
2022-08-23T10:11:51.515Z,3.30
2022-08-23T10:12:51.507Z,3.20
2022-08-23T10:13:51.489Z,3.70
2022-08-23T10:14:51.512Z,3.20
2022-08-23T10:15:51.693Z,3.60
2022-08-23T10:16:51.671Z,3.50
2022-08-23T10:17:51.457Z,3.50
2022-08-23T10:18:51.457Z,4.00
2022-08-23T10:19:51.443Z,3.70
2022-08-23T10:20:51.462Z,3.50
2022-08-23T10:21:51.490Z,3.80
2022-08-23T10:22:51.422Z,3.30
2022-08-23T10:23:51.387Z,3.70
2022-08-23T10:24:51.583Z,3.60
2022-08-23T10:25:51.440Z,3.70
2022-08-23T10:26:51.345Z,3.60
2022-08-23T10:27:51.346Z,3.30
2022-08-23T10:28:51.346Z,3.30
2022-08-23T10:29:51.353Z,3.50
2022-08-23T10:30:51.381Z,3.40
2022-08-23T10:31:51.320Z,3.40
2022-08-23T10:32:51.289Z,3.40
2022-08-23T10:33:51.312Z,3.50
2022-08-23T10:34:51.302Z,3.50
2022-08-23T10:35:51.251Z,3.40
2022-08-23T10:36:51.252Z,3.50
2022-08-23T10:37:51.241Z,3.20
2022-08-23T10:38:51.247Z,3.40
2022-08-23T10:39:51.237Z,3.30
2022-08-23T10:40:51.212Z,3.60
2022-08-23T10:41:51.194Z,3.30
2022-08-23T10:42:51.181Z,3.80
2022-08-23T10:43:51.195Z,3.30
2022-08-23T10:44:51.185Z,3.30
2022-08-23T10:45:51.199Z,3.40
2022-08-23T10:46:51.212Z,3.30
2022-08-23T10:47:51.117Z,3.40
2022-08-23T10:48:51.106Z,3.40
2022-08-23T10:49:51.133Z,3.20
2022-08-23T10:50:55.656Z,3.50
2022-08-23T10:51:51.782Z,3.60
2022-08-23T10:52:51.085Z,3.60
2022-08-23T10:53:51.057Z,3.10
2022-08-23T10:54:51.056Z,3.60
2022-08-23T10:55:51.051Z,3.50
2022-08-23T10:56:51.466Z,3.30
2022-08-23T10:57:51.012Z,3.40
2022-08-23T10:58:51.016Z,3.40
2022-08-23T10:59:51.048Z,3.40
2022-08-23T11:00:50.995Z,3.20
2022-08-23T11:01:51.035Z,3.30
2022-08-23T11:02:50.982Z,3.40
2022-08-23T11:03:50.953Z,3.30
2022-08-23T11:04:50.954Z,3.60
2022-08-23T11:05:50.935Z,3.40
2022-08-23T11:06:50.907Z,3.40
2022-08-23T11:07:50.908Z,3.50
2022-08-23T11:08:50.902Z,3.60
2022-08-23T11:09:51.079Z,3.50
2022-08-23T11:10:56.161Z,3.40
2022-08-23T11:11:50.857Z,3.60
2022-08-23T11:12:50.841Z,3.70
2022-08-23T11:13:50.836Z,3.60
2022-08-23T11:14:50.851Z,3.60
2022-08-23T11:15:50.868Z,3.60
2022-08-23T11:16:50.828Z,3.30
2022-08-23T11:17:50.796Z,3.50
2022-08-23T11:18:50.784Z,3.80
2022-08-23T11:19:50.787Z,3.30
2022-08-23T11:20:50.761Z,3.70
2022-08-23T11:21:50.772Z,3.50
2022-08-23T11:22:50.735Z,3.40
2022-08-23T11:23:50.734Z,3.50
2022-08-23T11:24:50.732Z,3.20
2022-08-23T11:25:50.713Z,3.30
2022-08-23T11:26:50.703Z,3.40
2022-08-23T11:27:50.683Z,3.60
2022-08-23T11:28:50.679Z,3.50
2022-08-23T11:29:50.693Z,3.70
2022-08-23T11:30:50.686Z,3.40
2022-08-23T11:31:50.632Z,3.60
2022-08-23T11:32:50.620Z,3.40
2022-08-23T11:33:50.619Z,3.60
2022-08-23T11:34:50.630Z,3.30
2022-08-23T11:35:50.620Z,3.10
2022-08-23T11:36:50.592Z,3.80
2022-08-23T11:37:50.568Z,3.30
2022-08-23T11:38:50.562Z,3.70
2022-08-23T11:39:50.646Z,3.30
2022-08-23T11:40:50.541Z,3.40
2022-08-23T11:41:50.555Z,3.60
2022-08-23T11:42:50.520Z,3.30
2022-08-23T11:43:50.514Z,3.50
2022-08-23T11:44:50.520Z,3.50
2022-08-23T11:45:50.522Z,3.30
2022-08-23T11:46:50.477Z,3.10
2022-08-23T11:47:50.475Z,3.30
2022-08-23T11:48:50.466Z,3.40
2022-08-23T11:49:50.463Z,3.80
2022-08-23T11:50:55.699Z,3.20
2022-08-23T11:51:50.434Z,3.60
2022-08-23T11:52:50.450Z,3.70
2022-08-23T11:53:50.405Z,4.10
2022-08-23T11:54:50.408Z,3.40
2022-08-23T11:55:50.380Z,3.60
2022-08-23T11:56:50.381Z,3.40
2022-08-23T11:57:50.356Z,3.50
2022-08-23T11:58:50.359Z,3.70
2022-08-23T11:59:50.366Z,3.30
2022-08-23T12:00:50.326Z,3.40
2022-08-23T12:01:50.327Z,3.50
2022-08-23T12:02:50.477Z,3.40
2022-08-23T12:03:50.452Z,3.60
2022-08-23T12:04:50.316Z,3.50
2022-08-23T12:05:50.513Z,3.60
2022-08-23T12:06:51.261Z,3.60
2022-08-23T12:07:50.251Z,3.40
2022-08-23T12:08:50.240Z,3.40
2022-08-23T12:09:50.248Z,3.70
2022-08-23T12:10:50.219Z,3.50
2022-08-23T12:11:50.215Z,3.90
2022-08-23T12:12:50.213Z,3.70
2022-08-23T12:13:50.200Z,3.50
2022-08-23T12:14:50.190Z,3.50
2022-08-23T12:15:50.202Z,3.50
2022-08-23T12:16:50.286Z,3.90
2022-08-23T12:17:50.166Z,3.60
2022-08-23T12:18:50.145Z,3.70
2022-08-23T12:19:50.145Z,4.00
2022-08-23T12:20:50.124Z,3.50
2022-08-23T12:21:50.103Z,3.40
2022-08-23T12:22:50.093Z,3.50
2022-08-23T12:23:50.099Z,3.60
2022-08-23T12:24:52.597Z,3.60
2022-08-23T12:25:50.094Z,3.30
2022-08-23T12:26:50.044Z,3.50
2022-08-23T12:27:50.036Z,3.50
2022-08-23T12:28:50.029Z,3.20
2022-08-23T12:29:50.044Z,3.50
2022-08-23T12:30:50.064Z,3.40
2022-08-23T12:31:50.091Z,3.70
2022-08-23T12:32:49.986Z,3.50
2022-08-23T12:33:49.980Z,3.70
2022-08-23T12:34:49.998Z,3.50
2022-08-23T12:35:49.964Z,3.50
2022-08-23T12:36:50.137Z,3.60
2022-08-23T12:37:49.942Z,3.30
2022-08-23T12:38:49.917Z,3.40
2022-08-23T12:39:49.974Z,3.40
2022-08-23T12:40:49.904Z,3.60
2022-08-23T12:41:49.890Z,3.60
2022-08-23T12:42:49.878Z,3.60
2022-08-23T12:43:49.908Z,3.20
2022-08-23T12:44:49.871Z,3.40
2022-08-23T12:45:49.971Z,3.40
2022-08-23T12:46:49.946Z,3.50
2022-08-23T12:47:49.825Z,3.70
2022-08-23T12:48:49.809Z,3.80
2022-08-23T12:49:49.839Z,3.50
2022-08-23T12:50:49.797Z,3.60
2022-08-23T12:51:49.779Z,3.40
2022-08-23T12:52:49.799Z,3.80
2022-08-23T12:53:49.776Z,3.60
2022-08-23T12:54:49.777Z,3.40
2022-08-23T12:55:49.768Z,3.80
2022-08-23T12:56:49.743Z,3.60
2022-08-23T12:57:49.740Z,3.60
2022-08-23T12:58:51.179Z,3.50
2022-08-23T12:59:49.726Z,3.40
2022-08-23T13:00:49.688Z,3.40
2022-08-23T13:01:49.764Z,3.50
2022-08-23T13:02:49.823Z,3.60
2022-08-23T13:03:49.660Z,3.30
2022-08-23T13:04:49.672Z,3.00
2022-08-23T13:05:52.141Z,3.20
2022-08-23T13:06:49.732Z,3.40
2022-08-23T13:07:50.844Z,3.30
2022-08-23T13:08:49.601Z,3.20
2022-08-23T13:09:53.466Z,3.20
2022-08-23T13:10:49.589Z,3.30
2022-08-23T13:11:49.581Z,3.40
2022-08-23T13:12:49.588Z,3.30
2022-08-23T13:13:49.556Z,3.20
2022-08-23T13:14:49.566Z,3.30
2022-08-23T13:15:49.620Z,3.20
2022-08-23T13:16:49.522Z,3.40
2022-08-23T13:17:49.512Z,3.30
2022-08-23T13:18:49.525Z,3.20
2022-08-23T13:19:49.491Z,3.30
2022-08-23T13:20:49.506Z,3.50
2022-08-23T13:21:53.295Z,3.10
2022-08-23T13:22:49.473Z,2.80